METAR Formatted Surface Weather Observation
Issued by NWS

Home | Current Version | Previous Version | Text Only | Print | Product List | Glossary On
Versions: 1 2 3 4 5 6 7 8 9 10 11 12 13 14 15 16 17 18 19 20 21 22 23 24 25 26 27 28 29 30 31 32 33 34
489
SAUS46 KLOX 230553
MTRNZY
METAR KNZY 230552Z 28013KT 8SM FEW015 SCT024 BKN040 14/11 A3003 RMK
AO2 SLP169 60000 T01440106 10172 20144 53004 $



USA.gov is the U.S. government's official web portal to all federal, state and local government web resources and services.